createdAt,value
2018-03-26T00:02:05.597Z,1008.3
2018-03-26T00:07:05.099Z,1008.3
2018-03-26T00:12:05.647Z,1008.3
2018-03-26T00:17:05.878Z,1008.3
2018-03-26T00:22:05.139Z,1008.3
2018-03-26T00:27:05.102Z,1008.3
2018-03-26T00:32:05.406Z,1008.3
2018-03-26T00:37:05.575Z,1008.3
2018-03-26T00:42:05.760Z,1008.3
2018-03-26T00:47:05.120Z,1008.3
2018-03-26T00:52:05.242Z,1008.3
2018-03-26T00:57:05.525Z,1008.2
2018-03-26T01:02:05.497Z,1008.2
2018-03-26T01:07:05.062Z,1008.2
2018-03-26T01:12:05.388Z,1008.2
2018-03-26T01:17:05.687Z,1008.3
2018-03-26T01:22:05.578Z,1008.3
2018-03-26T01:27:06.026Z,1008.3
2018-03-26T01:32:06.306Z,1008.3
2018-03-26T01:37:05.456Z,1008.3
2018-03-26T01:42:05.004Z,1008.3
2018-03-26T01:47:05.886Z,1008.4
2018-03-26T01:52:05.447Z,1008.4
2018-03-26T01:57:05.578Z,1008.5
2018-03-26T02:02:05.933Z,1008.5
2018-03-26T02:07:05.792Z,1008.5
2018-03-26T02:12:05.760Z,1008.5
2018-03-26T02:17:05.290Z,1008.6
2018-03-26T02:22:05.543Z,1008.6
2018-03-26T02:27:05.692Z,1008.7
2018-03-26T02:32:05.341Z,1008.7
2018-03-26T02:37:05.643Z,1008.7
2018-03-26T02:42:06.044Z,1008.7
2018-03-26T02:47:05.133Z,1008.8
2018-03-26T02:52:05.522Z,1008.8
2018-03-26T02:57:05.193Z,1008.9
2018-03-26T03:02:05.697Z,1008.9
2018-03-26T03:07:05.110Z,1008.9
2018-03-26T03:12:05.397Z,1008.9
2018-03-26T03:17:05.662Z,1009
2018-03-26T03:22:05.616Z,1009
2018-03-26T03:27:05.162Z,1009.1
2018-03-26T03:32:05.478Z,1009.1
2018-03-26T03:37:05.698Z,1009.1
2018-03-26T03:42:05.911Z,1009.1
2018-03-26T03:47:05.933Z,1009.1
2018-03-26T03:52:05.139Z,1009.1
2018-03-26T03:57:05.391Z,1009.2
2018-03-26T04:02:05.670Z,1009.2
2018-03-26T04:07:05.685Z,1009.3
2018-03-26T04:12:05.210Z,1009.3
2018-03-26T04:17:05.459Z,1009.3
2018-03-26T04:22:05.921Z,1009.3
2018-03-26T04:27:05.871Z,1009.4
2018-03-26T04:32:05.289Z,1009.4
2018-03-26T04:37:05.415Z,1009.4
2018-03-26T04:42:05.939Z,1009.4
2018-03-26T04:47:05.837Z,1009.4
2018-03-26T04:52:05.145Z,1009.4
2018-03-26T04:57:05.394Z,1009.5
2018-03-26T05:02:05.608Z,1009.5
2018-03-26T05:07:05.979Z,1009.5
2018-03-26T05:12:06.107Z,1009.5
2018-03-26T05:17:05.572Z,1009.7
2018-03-26T05:22:05.558Z,1009.7
2018-03-26T05:27:05.758Z,1009.9
2018-03-26T05:32:05.676Z,1009.9
2018-03-26T05:37:06.132Z,1009.9
2018-03-26T05:42:05.714Z,1009.9
2018-03-26T05:47:05.409Z,1009.9
2018-03-26T05:52:06.150Z,1009.9
2018-03-26T05:57:05.358Z,1010.1
2018-03-26T06:02:06.012Z,1010.1
2018-03-26T06:07:05.671Z,1010.1
2018-03-26T06:12:05.755Z,1010.1
2018-03-26T06:17:05.840Z,1010.4
2018-03-26T06:22:05.951Z,1010.4
2018-03-26T06:27:06.060Z,1010.5
2018-03-26T06:32:05.632Z,1010.5
2018-03-26T06:37:05.753Z,1010.5
2018-03-26T06:42:05.877Z,1010.5
2018-03-26T06:47:05.907Z,1010.8
2018-03-26T06:52:05.709Z,1010.8
2018-03-26T06:57:05.912Z,1010.9
2018-03-26T07:02:05.582Z,1010.9
2018-03-26T07:07:05.843Z,1010.9
2018-03-26T07:12:06.376Z,1010.9
2018-03-26T07:17:05.428Z,1011
2018-03-26T07:22:05.832Z,1011
2018-03-26T07:27:05.948Z,1011
2018-03-26T07:32:06.074Z,1011
2018-03-26T07:37:05.456Z,1011
2018-03-26T07:42:06.040Z,1011
2018-03-26T07:47:06.006Z,1011.2
2018-03-26T07:52:06.020Z,1011.2
2018-03-26T07:57:06.034Z,1011.4
2018-03-26T08:02:05.539Z,1011.4
2018-03-26T08:07:05.725Z,1011.5
2018-03-26T08:12:06.316Z,1011.5
2018-03-26T08:17:06.386Z,1011.6
2018-03-26T08:22:06.144Z,1011.6
2018-03-26T08:27:06.036Z,1011.8
2018-03-26T08:32:06.245Z,1011.8
2018-03-26T08:37:06.265Z,1011.9
2018-03-26T08:42:05.725Z,1011.9
2018-03-26T08:47:05.876Z,1012.1
2018-03-26T08:52:06.009Z,1012.1
2018-03-26T08:57:06.159Z,1012.1
2018-03-26T09:02:05.628Z,1012.1
2018-03-26T09:07:06.222Z,1012.1
2018-03-26T09:12:05.971Z,1012.1
2018-03-26T09:17:06.367Z,1012.2
2018-03-26T09:22:05.848Z,1012.2
2018-03-26T09:27:05.918Z,1012.5
2018-03-26T09:32:05.578Z,1012.5
2018-03-26T09:37:06.252Z,1012.5
2018-03-26T09:42:05.519Z,1012.5
2018-03-26T09:47:05.871Z,1012.6
2018-03-26T09:52:05.964Z,1012.6
2018-03-26T09:57:06.241Z,1012.7
2018-03-26T10:02:05.694Z,1012.7
2018-03-26T10:07:05.725Z,1012.7
2018-03-26T10:12:06.007Z,1012.7
2018-03-26T10:17:06.095Z,1012.7
2018-03-26T10:22:06.154Z,1012.7
2018-03-26T10:27:06.204Z,1012.8
2018-03-26T10:32:06.415Z,1012.8
2018-03-26T10:37:05.756Z,1012.8
2018-03-26T10:42:06.582Z,1012.8
2018-03-26T10:47:05.934Z,1012.8
2018-03-26T10:52:05.963Z,1012.8
2018-03-26T10:57:06.545Z,1012.8
2018-03-26T11:02:06.480Z,1012.8
2018-03-26T11:07:05.731Z,1012.8
2018-03-26T11:12:05.949Z,1012.8
2018-03-26T11:17:06.172Z,1013
2018-03-26T11:22:06.524Z,1013
2018-03-26T11:27:06.006Z,1013.1
2018-03-26T11:32:06.566Z,1013.1
2018-03-26T11:37:06.084Z,1013.1
2018-03-26T11:42:06.366Z,1013.1
2018-03-26T11:47:06.010Z,1013.1
2018-03-26T11:52:06.008Z,1013.1
2018-03-26T11:57:06.252Z,1013
2018-03-26T12:02:06.114Z,1013
2018-03-26T12:07:06.261Z,1013
2018-03-26T12:12:05.993Z,1013
2018-03-26T12:17:06.045Z,1013
2018-03-26T12:22:06.309Z,1013
2018-03-26T12:27:05.919Z,1013
2018-03-26T12:32:06.039Z,1013
2018-03-26T12:37:06.029Z,1013
2018-03-26T12:42:06.380Z,1013
2018-03-26T12:47:06.218Z,1013
2018-03-26T12:52:06.215Z,1013
2018-03-26T12:57:06.234Z,1013
2018-03-26T13:02:06.023Z,1013
2018-03-26T13:07:06.209Z,1013
2018-03-26T13:12:06.054Z,1013
2018-03-26T13:17:06.080Z,1013
2018-03-26T13:22:06.117Z,1013
2018-03-26T13:27:06.649Z,1013.1
2018-03-26T13:32:05.954Z,1013.1
2018-03-26T13:37:06.628Z,1013.1
2018-03-26T13:42:06.167Z,1013.1
2018-03-26T13:47:06.213Z,1013.1
2018-03-26T13:52:06.355Z,1013.1
2018-03-26T13:57:06.418Z,1013.1
2018-03-26T14:02:06.016Z,1013.1
2018-03-26T14:07:06.712Z,1013.1
2018-03-26T14:12:06.105Z,1013.1
2018-03-26T14:17:06.246Z,1013.1
2018-03-26T14:22:06.431Z,1013.1
2018-03-26T14:27:06.481Z,1013.1
2018-03-26T14:32:05.947Z,1013.1
2018-03-26T14:37:06.325Z,1013.1
2018-03-26T14:42:05.913Z,1013.1
2018-03-26T14:47:05.956Z,1013.3
2018-03-26T14:52:05.999Z,1013.3
2018-03-26T14:57:06.821Z,1013.2
2018-03-26T15:02:06.450Z,1013.2
2018-03-26T15:07:06.623Z,1013.2
2018-03-26T15:12:06.002Z,1013.2
2018-03-26T15:17:06.313Z,1013.1
2018-03-26T15:22:06.406Z,1013.1
2018-03-26T15:27:06.485Z,1013.1
2018-03-26T15:32:06.722Z,1013.1
2018-03-26T15:37:06.048Z,1013.1
2018-03-26T15:42:06.605Z,1013.1
2018-03-26T15:47:06.370Z,1013.2
2018-03-26T15:52:06.840Z,1013.2
2018-03-26T15:57:06.800Z,1013.2
2018-03-26T16:02:06.274Z,1013.2
2018-03-26T16:07:06.350Z,1013.2
2018-03-26T16:12:06.552Z,1013.2
2018-03-26T16:17:06.580Z,1013.3
2018-03-26T16:22:06.455Z,1013.3
2018-03-26T16:27:06.611Z,1013.4
2018-03-26T16:32:06.245Z,1013.4
2018-03-26T16:37:06.864Z,1013.4
2018-03-26T16:42:06.882Z,1013.4
2018-03-26T16:47:06.806Z,1013.5
2018-03-26T16:52:06.837Z,1013.5
2018-03-26T16:57:06.917Z,1013.5
2018-03-26T17:02:06.462Z,1013.5
2018-03-26T17:07:06.053Z,1013.5
2018-03-26T17:12:06.864Z,1013.5
2018-03-26T17:17:06.109Z,1013.4
2018-03-26T17:22:06.527Z,1013.4
2018-03-26T17:27:06.673Z,1013.5
2018-03-26T17:32:06.886Z,1013.5
2018-03-26T17:37:06.053Z,1013.5
2018-03-26T17:42:06.167Z,1013.5
2018-03-26T17:47:06.330Z,1013.6
2018-03-26T17:52:06.451Z,1013.6
2018-03-26T17:57:06.557Z,1013.6
2018-03-26T18:02:06.672Z,1013.6
2018-03-26T18:07:06.829Z,1013.6
2018-03-26T18:12:06.510Z,1013.6
2018-03-26T18:17:06.782Z,1013.6
2018-03-26T18:22:06.925Z,1013.6
2018-03-26T18:27:06.922Z,1013.6
2018-03-26T18:32:07.040Z,1013.6
2018-03-26T18:37:07.024Z,1013.6
2018-03-26T18:42:07.053Z,1013.6
2018-03-26T18:47:06.287Z,1013.6
2018-03-26T18:52:06.289Z,1013.6
2018-03-26T18:57:06.459Z,1013.6
2018-03-26T19:02:06.884Z,1013.6
2018-03-26T19:07:06.986Z,1013.6
2018-03-26T19:12:06.693Z,1013.6
2018-03-26T19:17:06.815Z,1013.6
2018-03-26T19:22:07.051Z,1013.6
2018-03-26T19:27:07.030Z,1013.7
2018-03-26T19:32:06.683Z,1013.7
2018-03-26T19:37:06.851Z,1013.7
2018-03-26T19:42:06.833Z,1013.7
2018-03-26T19:47:06.183Z,1013.8
2018-03-26T19:52:06.361Z,1013.8
2018-03-26T19:57:06.540Z,1013.8
2018-03-26T20:02:07.202Z,1013.8
2018-03-26T20:07:06.329Z,1013.8
2018-03-26T20:12:06.535Z,1013.8
2018-03-26T20:17:06.661Z,1013.8
2018-03-26T20:22:06.772Z,1013.8
2018-03-26T20:27:06.790Z,1013.9
2018-03-26T20:32:07.000Z,1013.9
2018-03-26T20:37:07.046Z,1013.9
2018-03-26T20:42:07.105Z,1013.9
2018-03-26T20:47:07.161Z,1014
2018-03-26T20:52:06.419Z,1014
2018-03-26T20:57:07.324Z,1013.9
2018-03-26T21:02:06.992Z,1013.9
2018-03-26T21:07:07.268Z,1013.9
2018-03-26T21:12:06.852Z,1013.9
2018-03-26T21:17:07.006Z,1013.9
2018-03-26T21:22:06.964Z,1013.9
2018-03-26T21:27:07.075Z,1014
2018-03-26T21:32:06.375Z,1014
2018-03-26T21:37:06.489Z,1014
2018-03-26T21:42:06.501Z,1014
2018-03-26T21:47:06.501Z,1014.2
2018-03-26T21:52:06.572Z,1014.2
2018-03-26T21:57:06.669Z,1014.2
2018-03-26T22:02:07.374Z,1014.2
2018-03-26T22:07:07.114Z,1014.2
2018-03-26T22:12:07.114Z,1014.2
2018-03-26T22:17:06.445Z,1014
2018-03-26T22:22:07.266Z,1014
2018-03-26T22:27:06.660Z,1014
2018-03-26T22:32:06.780Z,1014
2018-03-26T22:37:06.949Z,1014
2018-03-26T22:42:06.730Z,1014
2018-03-26T22:47:06.921Z,1013.9
2018-03-26T22:52:07.228Z,1013.9
2018-03-26T22:57:07.373Z,1013.9
2018-03-26T23:02:07.091Z,1013.9
2018-03-26T23:07:07.186Z,1013.9
2018-03-26T23:12:07.457Z,1013.9
2018-03-26T23:17:06.672Z,1013.9
2018-03-26T23:22:06.711Z,1013.9
2018-03-26T23:27:06.841Z,1014
2018-03-26T23:32:07.209Z,1014
2018-03-26T23:37:06.823Z,1014.1
2018-03-26T23:42:06.914Z,1014.1
2018-03-26T23:47:06.848Z,1014
2018-03-26T23:52:07.029Z,1014
2018-03-26T23:57:07.498Z,1014
